sensor_id;sensor_type;location;lat;lon;timestamp;P1;durP1;ratioP1;P2;durP2;ratioP2
21038;SDS011;10678;51.002;4.786;2023-06-10T00:01:23;10.82;;;5.55;;
21038;SDS011;10678;51.002;4.786;2023-06-10T00:03:52;8.13;;;5.50;;
21038;SDS011;10678;51.002;4.786;2023-06-10T00:06:18;8.38;;;5.72;;
21038;SDS011;10678;51.002;4.786;2023-06-10T00:08:43;12.02;;;5.85;;
21038;SDS011;10678;51.002;4.786;2023-06-10T00:11:12;12.98;;;6.40;;
21038;SDS011;10678;51.002;4.786;2023-06-10T00:13:37;7.80;;;5.68;;
21038;SDS011;10678;51.002;4.786;2023-06-10T00:16:03;14.98;;;6.60;;
21038;SDS011;10678;51.002;4.786;2023-06-10T00:18:29;10.10;;;6.10;;
21038;SDS011;10678;51.002;4.786;2023-06-10T00:20:56;10.23;;;6.30;;
21038;SDS011;10678;51.002;4.786;2023-06-10T00:23:29;13.25;;;5.88;;
21038;SDS011;10678;51.002;4.786;2023-06-10T00:25:58;9.18;;;5.72;;
21038;SDS011;10678;51.002;4.786;2023-06-10T00:28:24;9.55;;;6.45;;
21038;SDS011;10678;51.002;4.786;2023-06-10T00:30:50;14.27;;;6.03;;
21038;SDS011;10678;51.002;4.786;2023-06-10T00:33:16;9.65;;;5.35;;
21038;SDS011;10678;51.002;4.786;2023-06-10T00:35:41;9.68;;;6.28;;
21038;SDS011;10678;51.002;4.786;2023-06-10T00:38:07;10.45;;;5.95;;
21038;SDS011;10678;51.002;4.786;2023-06-10T00:40:33;12.15;;;5.55;;
21038;SDS011;10678;51.002;4.786;2023-06-10T00:43:04;10.43;;;6.07;;
21038;SDS011;10678;51.002;4.786;2023-06-10T00:45:30;9.80;;;6.40;;
21038;SDS011;10678;51.002;4.786;2023-06-10T00:47:56;7.78;;;5.78;;
21038;SDS011;10678;51.002;4.786;2023-06-10T00:50:22;10.82;;;6.10;;
21038;SDS011;10678;51.002;4.786;2023-06-10T00:52:48;11.02;;;6.13;;
21038;SDS011;10678;51.002;4.786;2023-06-10T00:55:16;8.93;;;5.70;;
21038;SDS011;10678;51.002;4.786;2023-06-10T00:57:43;9.75;;;6.45;;
21038;SDS011;10678;51.002;4.786;2023-06-10T01:00:11;12.30;;;6.72;;
21038;SDS011;10678;51.002;4.786;2023-06-10T01:02:37;10.40;;;6.00;;
21038;SDS011;10678;51.002;4.786;2023-06-10T01:05:03;11.20;;;5.93;;
21038;SDS011;10678;51.002;4.786;2023-06-10T01:12:38;8.10;;;5.97;;
21038;SDS011;10678;51.002;4.786;2023-06-10T01:15:04;9.30;;;6.20;;
21038;SDS011;10678;51.002;4.786;2023-06-10T01:17:31;9.77;;;6.70;;
21038;SDS011;10678;51.002;4.786;2023-06-10T01:19:57;10.98;;;6.55;;
21038;SDS011;10678;51.002;4.786;2023-06-10T01:22:26;11.68;;;6.95;;
21038;SDS011;10678;51.002;4.786;2023-06-10T01:24:53;9.35;;;6.45;;
21038;SDS011;10678;51.002;4.786;2023-06-10T01:27:25;9.82;;;6.65;;
21038;SDS011;10678;51.002;4.786;2023-06-10T01:29:54;10.40;;;7.05;;
21038;SDS011;10678;51.002;4.786;2023-06-10T01:32:37;11.52;;;6.80;;
21038;SDS011;10678;51.002;4.786;2023-06-10T01:35:07;12.38;;;8.05;;
21038;SDS011;10678;51.002;4.786;2023-06-10T01:37:33;12.43;;;6.97;;
21038;SDS011;10678;51.002;4.786;2023-06-10T01:40:00;10.55;;;7.45;;
21038;SDS011;10678;51.002;4.786;2023-06-10T01:42:30;10.10;;;7.22;;
21038;SDS011;10678;51.002;4.786;2023-06-10T01:44:57;11.30;;;7.30;;
21038;SDS011;10678;51.002;4.786;2023-06-10T01:47:23;10.23;;;6.70;;
21038;SDS011;10678;51.002;4.786;2023-06-10T01:49:48;10.25;;;7.00;;
21038;SDS011;10678;51.002;4.786;2023-06-10T01:52:14;12.85;;;8.10;;
21038;SDS011;10678;51.002;4.786;2023-06-10T01:54:40;11.00;;;7.50;;
21038;SDS011;10678;51.002;4.786;2023-06-10T01:57:06;10.68;;;7.55;;
21038;SDS011;10678;51.002;4.786;2023-06-10T01:59:31;10.02;;;7.30;;
21038;SDS011;10678;51.002;4.786;2023-06-10T02:01:57;9.55;;;7.47;;
21038;SDS011;10678;51.002;4.786;2023-06-10T02:04:23;11.93;;;7.63;;
21038;SDS011;10678;51.002;4.786;2023-06-10T02:06:48;11.75;;;7.75;;
21038;SDS011;10678;51.002;4.786;2023-06-10T02:09:15;11.10;;;7.03;;
21038;SDS011;10678;51.002;4.786;2023-06-10T02:11:41;13.10;;;7.35;;
21038;SDS011;10678;51.002;4.786;2023-06-10T02:14:06;11.40;;;6.95;;
21038;SDS011;10678;51.002;4.786;2023-06-10T02:16:32;11.80;;;7.22;;
21038;SDS011;10678;51.002;4.786;2023-06-10T02:18:58;10.30;;;7.60;;
21038;SDS011;10678;51.002;4.786;2023-06-10T02:21:25;11.30;;;8.00;;
21038;SDS011;10678;51.002;4.786;2023-06-10T02:23:51;12.00;;;8.43;;
21038;SDS011;10678;51.002;4.786;2023-06-10T02:26:16;12.35;;;7.57;;
21038;SDS011;10678;51.002;4.786;2023-06-10T02:28:42;12.45;;;7.93;;
21038;SDS011;10678;51.002;4.786;2023-06-10T02:31:08;11.38;;;7.85;;
21038;SDS011;10678;51.002;4.786;2023-06-10T02:33:34;15.05;;;8.93;;
21038;SDS011;10678;51.002;4.786;2023-06-10T02:35:59;11.98;;;8.20;;
21038;SDS011;10678;51.002;4.786;2023-06-10T02:38:25;14.63;;;8.05;;
21038;SDS011;10678;51.002;4.786;2023-06-10T02:40:51;11.88;;;8.27;;
21038;SDS011;10678;51.002;4.786;2023-06-10T02:43:16;12.30;;;8.10;;
21038;SDS011;10678;51.002;4.786;2023-06-10T02:45:42;12.40;;;7.93;;
21038;SDS011;10678;51.002;4.786;2023-06-10T02:48:08;9.88;;;7.78;;
21038;SDS011;10678;51.002;4.786;2023-06-10T02:50:33;11.60;;;7.82;;
21038;SDS011;10678;51.002;4.786;2023-06-10T02:52:59;10.95;;;7.93;;
21038;SDS011;10678;51.002;4.786;2023-06-10T02:55:25;11.20;;;7.78;;
21038;SDS011;10678;51.002;4.786;2023-06-10T02:57:51;10.80;;;8.02;;
21038;SDS011;10678;51.002;4.786;2023-06-10T03:00:19;9.88;;;7.68;;
21038;SDS011;10678;51.002;4.786;2023-06-10T03:02:45;14.18;;;8.35;;
21038;SDS011;10678;51.002;4.786;2023-06-10T03:05:11;10.73;;;7.97;;
21038;SDS011;10678;51.002;4.786;2023-06-10T03:07:38;11.45;;;7.75;;
21038;SDS011;10678;51.002;4.786;2023-06-10T03:10:05;13.35;;;9.25;;
21038;SDS011;10678;51.002;4.786;2023-06-10T03:12:31;10.98;;;8.30;;
21038;SDS011;10678;51.002;4.786;2023-06-10T03:14:57;16.15;;;9.13;;
21038;SDS011;10678;51.002;4.786;2023-06-10T03:17:23;10.80;;;8.95;;
21038;SDS011;10678;51.002;4.786;2023-06-10T03:19:48;13.48;;;8.57;;
21038;SDS011;10678;51.002;4.786;2023-06-10T03:22:14;16.67;;;8.73;;
21038;SDS011;10678;51.002;4.786;2023-06-10T03:24:41;12.85;;;9.02;;
21038;SDS011;10678;51.002;4.786;2023-06-10T03:27:08;14.15;;;9.05;;
21038;SDS011;10678;51.002;4.786;2023-06-10T03:29:35;12.43;;;8.60;;
21038;SDS011;10678;51.002;4.786;2023-06-10T03:32:01;10.80;;;8.65;;
21038;SDS011;10678;51.002;4.786;2023-06-10T03:34:27;14.27;;;9.00;;
21038;SDS011;10678;51.002;4.786;2023-06-10T03:36:53;13.65;;;8.80;;
21038;SDS011;10678;51.002;4.786;2023-06-10T03:39:18;11.05;;;8.55;;
21038;SDS011;10678;51.002;4.786;2023-06-10T03:41:44;11.82;;;8.60;;
21038;SDS011;10678;51.002;4.786;2023-06-10T03:44:10;12.88;;;8.88;;
21038;SDS011;10678;51.002;4.786;2023-06-10T03:46:36;12.70;;;8.80;;
21038;SDS011;10678;51.002;4.786;2023-06-10T03:49:01;10.63;;;8.23;;
21038;SDS011;10678;51.002;4.786;2023-06-10T03:51:29;14.55;;;8.63;;
21038;SDS011;10678;51.002;4.786;2023-06-10T03:53:55;12.55;;;8.77;;
21038;SDS011;10678;51.002;4.786;2023-06-10T03:56:20;11.52;;;8.52;;
21038;SDS011;10678;51.002;4.786;2023-06-10T03:58:46;12.88;;;8.40;;
21038;SDS011;10678;51.002;4.786;2023-06-10T04:01:12;16.08;;;9.18;;
21038;SDS011;10678;51.002;4.786;2023-06-10T04:03:42;13.52;;;9.15;;
21038;SDS011;10678;51.002;4.786;2023-06-10T04:06:08;14.85;;;8.98;;
21038;SDS011;10678;51.002;4.786;2023-06-10T04:08:34;14.68;;;9.63;;
21038;SDS011;10678;51.002;4.786;2023-06-10T04:11:00;11.77;;;8.55;;
21038;SDS011;10678;51.002;4.786;2023-06-10T04:13:27;13.60;;;9.77;;
21038;SDS011;10678;51.002;4.786;2023-06-10T04:15:53;14.88;;;8.95;;
21038;SDS011;10678;51.002;4.786;2023-06-10T04:18:19;13.30;;;8.93;;
21038;SDS011;10678;51.002;4.786;2023-06-10T04:20:46;15.30;;;8.77;;
21038;SDS011;10678;51.002;4.786;2023-06-10T04:23:12;13.85;;;9.07;;
21038;SDS011;10678;51.002;4.786;2023-06-10T04:25:38;16.30;;;9.38;;
21038;SDS011;10678;51.002;4.786;2023-06-10T04:28:03;16.17;;;8.80;;
21038;SDS011;10678;51.002;4.786;2023-06-10T04:30:29;11.20;;;8.88;;
21038;SDS011;10678;51.002;4.786;2023-06-10T04:32:56;11.93;;;9.25;;
21038;SDS011;10678;51.002;4.786;2023-06-10T04:35:22;13.57;;;8.80;;
21038;SDS011;10678;51.002;4.786;2023-06-10T04:37:47;12.55;;;8.55;;
21038;SDS011;10678;51.002;4.786;2023-06-10T04:40:13;11.70;;;8.50;;
21038;SDS011;10678;51.002;4.786;2023-06-10T04:42:40;13.40;;;8.95;;
21038;SDS011;10678;51.002;4.786;2023-06-10T04:45:06;13.93;;;8.77;;
21038;SDS011;10678;51.002;4.786;2023-06-10T04:47:33;12.43;;;9.85;;
21038;SDS011;10678;51.002;4.786;2023-06-10T04:49:59;13.45;;;9.15;;
21038;SDS011;10678;51.002;4.786;2023-06-10T04:52:25;12.95;;;9.13;;
21038;SDS011;10678;51.002;4.786;2023-06-10T04:54:52;13.07;;;9.13;;
21038;SDS011;10678;51.002;4.786;2023-06-10T04:57:18;14.07;;;9.63;;
21038;SDS011;10678;51.002;4.786;2023-06-10T04:59:45;16.77;;;9.68;;
21038;SDS011;10678;51.002;4.786;2023-06-10T05:02:11;11.68;;;8.73;;
21038;SDS011;10678;51.002;4.786;2023-06-10T05:04:36;14.95;;;9.15;;
21038;SDS011;10678;51.002;4.786;2023-06-10T05:07:02;12.07;;;9.38;;
21038;SDS011;10678;51.002;4.786;2023-06-10T05:09:28;12.55;;;9.65;;
21038;SDS011;10678;51.002;4.786;2023-06-10T05:11:54;13.25;;;9.02;;
21038;SDS011;10678;51.002;4.786;2023-06-10T05:14:20;16.50;;;8.80;;
21038;SDS011;10678;51.002;4.786;2023-06-10T05:16:46;17.02;;;9.05;;
21038;SDS011;10678;51.002;4.786;2023-06-10T05:19:12;11.75;;;8.90;;
21038;SDS011;10678;51.002;4.786;2023-06-10T05:21:38;14.40;;;8.77;;
21038;SDS011;10678;51.002;4.786;2023-06-10T05:24:04;15.70;;;9.63;;
21038;SDS011;10678;51.002;4.786;2023-06-10T05:26:30;15.02;;;8.73;;
21038;SDS011;10678;51.002;4.786;2023-06-10T05:28:57;12.85;;;9.38;;
21038;SDS011;10678;51.002;4.786;2023-06-10T05:31:23;12.05;;;8.48;;
21038;SDS011;10678;51.002;4.786;2023-06-10T05:33:49;13.93;;;9.15;;
21038;SDS011;10678;51.002;4.786;2023-06-10T05:36:15;11.55;;;8.45;;
21038;SDS011;10678;51.002;4.786;2023-06-10T05:38:40;11.30;;;8.55;;
21038;SDS011;10678;51.002;4.786;2023-06-10T05:41:06;14.50;;;8.88;;
21038;SDS011;10678;51.002;4.786;2023-06-10T05:43:31;12.88;;;8.93;;
21038;SDS011;10678;51.002;4.786;2023-06-10T05:45:57;14.05;;;8.80;;
21038;SDS011;10678;51.002;4.786;2023-06-10T05:48:23;14.50;;;8.65;;
21038;SDS011;10678;51.002;4.786;2023-06-10T05:50:48;12.27;;;8.40;;
21038;SDS011;10678;51.002;4.786;2023-06-10T05:53:14;11.95;;;8.73;;
21038;SDS011;10678;51.002;4.786;2023-06-10T05:55:42;11.70;;;8.68;;
21038;SDS011;10678;51.002;4.786;2023-06-10T05:58:08;10.48;;;7.60;;
21038;SDS011;10678;51.002;4.786;2023-06-10T06:00:34;14.35;;;7.97;;
21038;SDS011;10678;51.002;4.786;2023-06-10T06:03:00;15.25;;;8.65;;
21038;SDS011;10678;51.002;4.786;2023-06-10T06:05:25;13.20;;;7.65;;
21038;SDS011;10678;51.002;4.786;2023-06-10T06:07:51;11.27;;;7.60;;
21038;SDS011;10678;51.002;4.786;2023-06-10T06:10:17;14.27;;;7.60;;
21038;SDS011;10678;51.002;4.786;2023-06-10T06:12:43;12.80;;;7.65;;
21038;SDS011;10678;51.002;4.786;2023-06-10T06:15:10;12.48;;;7.55;;
21038;SDS011;10678;51.002;4.786;2023-06-10T06:17:36;9.55;;;7.10;;
21038;SDS011;10678;51.002;4.786;2023-06-10T06:20:02;12.75;;;7.63;;
21038;SDS011;10678;51.002;4.786;2023-06-10T06:22:28;9.88;;;7.18;;
21038;SDS011;10678;51.002;4.786;2023-06-10T06:24:54;10.40;;;7.00;;
21038;SDS011;10678;51.002;4.786;2023-06-10T06:27:20;11.50;;;6.78;;
21038;SDS011;10678;51.002;4.786;2023-06-10T06:29:46;10.10;;;7.00;;
21038;SDS011;10678;51.002;4.786;2023-06-10T06:32:12;9.15;;;7.22;;
21038;SDS011;10678;51.002;4.786;2023-06-10T06:34:37;13.00;;;6.97;;
21038;SDS011;10678;51.002;4.786;2023-06-10T06:37:03;11.48;;;6.78;;
21038;SDS011;10678;51.002;4.786;2023-06-10T06:39:29;11.70;;;7.40;;
21038;SDS011;10678;51.002;4.786;2023-06-10T06:41:55;10.32;;;7.13;;
21038;SDS011;10678;51.002;4.786;2023-06-10T06:44:20;10.52;;;7.03;;
21038;SDS011;10678;51.002;4.786;2023-06-10T06:46:46;13.32;;;6.88;;
21038;SDS011;10678;51.002;4.786;2023-06-10T06:49:11;11.10;;;7.88;;
21038;SDS011;10678;51.002;4.786;2023-06-10T06:51:37;11.77;;;7.13;;
21038;SDS011;10678;51.002;4.786;2023-06-10T06:54:03;11.18;;;6.85;;
21038;SDS011;10678;51.002;4.786;2023-06-10T06:56:30;8.68;;;6.25;;
21038;SDS011;10678;51.002;4.786;2023-06-10T06:58:56;9.30;;;6.65;;
21038;SDS011;10678;51.002;4.786;2023-06-10T07:01:21;13.57;;;6.60;;
21038;SDS011;10678;51.002;4.786;2023-06-10T07:03:47;9.80;;;6.70;;
21038;SDS011;10678;51.002;4.786;2023-06-10T07:06:13;13.90;;;6.60;;
21038;SDS011;10678;51.002;4.786;2023-06-10T07:08:38;9.82;;;6.55;;
21038;SDS011;10678;51.002;4.786;2023-06-10T07:11:04;10.98;;;6.60;;
21038;SDS011;10678;51.002;4.786;2023-06-10T07:13:30;10.38;;;6.80;;
21038;SDS011;10678;51.002;4.786;2023-06-10T07:15:55;9.48;;;6.10;;
21038;SDS011;10678;51.002;4.786;2023-06-10T07:18:21;13.00;;;6.43;;
21038;SDS011;10678;51.002;4.786;2023-06-10T07:20:46;9.02;;;6.88;;
21038;SDS011;10678;51.002;4.786;2023-06-10T07:23:12;9.20;;;6.18;;
21038;SDS011;10678;51.002;4.786;2023-06-10T07:25:38;12.23;;;6.10;;
21038;SDS011;10678;51.002;4.786;2023-06-10T07:28:03;9.10;;;6.22;;
21038;SDS011;10678;51.002;4.786;2023-06-10T07:30:29;12.55;;;5.65;;
21038;SDS011;10678;51.002;4.786;2023-06-10T07:32:55;9.43;;;6.07;;
21038;SDS011;10678;51.002;4.786;2023-06-10T07:35:21;7.68;;;5.78;;
21038;SDS011;10678;51.002;4.786;2023-06-10T07:37:46;11.43;;;6.25;;
21038;SDS011;10678;51.002;4.786;2023-06-10T07:40:12;14.55;;;6.10;;
21038;SDS011;10678;51.002;4.786;2023-06-10T07:42:38;8.68;;;5.60;;
21038;SDS011;10678;51.002;4.786;2023-06-10T07:45:04;10.90;;;5.40;;
21038;SDS011;10678;51.002;4.786;2023-06-10T07:47:30;9.27;;;5.35;;
21038;SDS011;10678;51.002;4.786;2023-06-10T07:49:58;10.13;;;5.88;;
21038;SDS011;10678;51.002;4.786;2023-06-10T07:52:24;7.60;;;5.45;;
21038;SDS011;10678;51.002;4.786;2023-06-10T07:54:50;9.90;;;6.28;;
21038;SDS011;10678;51.002;4.786;2023-06-10T07:57:17;9.23;;;5.97;;
21038;SDS011;10678;51.002;4.786;2023-06-10T07:59:44;9.48;;;5.35;;
21038;SDS011;10678;51.002;4.786;2023-06-10T08:02:09;10.27;;;5.78;;
21038;SDS011;10678;51.002;4.786;2023-06-10T08:04:35;10.43;;;5.43;;
21038;SDS011;10678;51.002;4.786;2023-06-10T08:07:01;9.38;;;5.65;;
21038;SDS011;10678;51.002;4.786;2023-06-10T08:09:28;8.40;;;5.03;;
21038;SDS011;10678;51.002;4.786;2023-06-10T08:11:53;9.82;;;5.50;;
21038;SDS011;10678;51.002;4.786;2023-06-10T08:14:20;11.13;;;5.60;;
21038;SDS011;10678;51.002;4.786;2023-06-10T08:16:46;8.50;;;5.50;;
21038;SDS011;10678;51.002;4.786;2023-06-10T08:19:12;7.18;;;4.60;;
21038;SDS011;10678;51.002;4.786;2023-06-10T08:21:37;9.27;;;5.45;;
21038;SDS011;10678;51.002;4.786;2023-06-10T08:24:04;9.80;;;5.35;;
21038;SDS011;10678;51.002;4.786;2023-06-10T08:26:31;9.95;;;5.30;;
21038;SDS011;10678;51.002;4.786;2023-06-10T08:28:57;9.80;;;5.03;;
21038;SDS011;10678;51.002;4.786;2023-06-10T08:31:22;7.75;;;5.10;;
21038;SDS011;10678;51.002;4.786;2023-06-10T08:33:48;8.85;;;5.20;;
21038;SDS011;10678;51.002;4.786;2023-06-10T08:36:14;8.90;;;5.20;;
21038;SDS011;10678;51.002;4.786;2023-06-10T08:38:39;10.65;;;5.53;;
21038;SDS011;10678;51.002;4.786;2023-06-10T08:41:05;9.10;;;5.63;;
21038;SDS011;10678;51.002;4.786;2023-06-10T08:43:37;13.88;;;5.57;;
21038;SDS011;10678;51.002;4.786;2023-06-10T08:46:08;7.00;;;4.60;;
21038;SDS011;10678;51.002;4.786;2023-06-10T08:48:35;11.38;;;5.15;;
21038;SDS011;10678;51.002;4.786;2023-06-10T08:51:06;8.05;;;4.90;;
21038;SDS011;10678;51.002;4.786;2023-06-10T08:53:34;7.05;;;4.90;;
21038;SDS011;10678;51.002;4.786;2023-06-10T08:56:03;13.73;;;5.47;;
21038;SDS011;10678;51.002;4.786;2023-06-10T08:58:31;10.55;;;5.45;;
21038;SDS011;10678;51.002;4.786;2023-06-10T09:01:06;6.90;;;4.57;;
21038;SDS011;10678;51.002;4.786;2023-06-10T09:03:33;8.68;;;5.10;;
21038;SDS011;10678;51.002;4.786;2023-06-10T09:06:01;10.52;;;5.13;;
21038;SDS011;10678;51.002;4.786;2023-06-10T09:08:29;8.82;;;5.20;;
21038;SDS011;10678;51.002;4.786;2023-06-10T09:10:55;9.20;;;5.05;;
21038;SDS011;10678;51.002;4.786;2023-06-10T09:13:23;6.70;;;4.88;;
21038;SDS011;10678;51.002;4.786;2023-06-10T09:15:49;7.75;;;5.10;;
21038;SDS011;10678;51.002;4.786;2023-06-10T09:18:16;10.43;;;5.07;;
21038;SDS011;10678;51.002;4.786;2023-06-10T09:20:42;11.50;;;4.53;;
21038;SDS011;10678;51.002;4.786;2023-06-10T09:23:09;8.02;;;4.70;;
21038;SDS011;10678;51.002;4.786;2023-06-10T09:25:35;8.45;;;4.20;;
21038;SDS011;10678;51.002;4.786;2023-06-10T09:28:02;9.07;;;5.03;;
21038;SDS011;10678;51.002;4.786;2023-06-10T09:30:29;6.55;;;4.53;;
21038;SDS011;10678;51.002;4.786;2023-06-10T09:32:56;8.82;;;4.97;;
21038;SDS011;10678;51.002;4.786;2023-06-10T09:35:24;7.70;;;5.00;;
21038;SDS011;10678;51.002;4.786;2023-06-10T09:37:52;7.07;;;4.50;;
21038;SDS011;10678;51.002;4.786;2023-06-10T09:40:18;12.20;;;4.80;;
21038;SDS011;10678;51.002;4.786;2023-06-10T09:42:44;6.88;;;4.40;;
21038;SDS011;10678;51.002;4.786;2023-06-10T09:45:10;8.77;;;4.80;;
21038;SDS011;10678;51.002;4.786;2023-06-10T09:47:35;7.10;;;4.72;;
21038;SDS011;10678;51.002;4.786;2023-06-10T09:50:01;9.32;;;4.80;;
21038;SDS011;10678;51.002;4.786;2023-06-10T09:52:28;8.38;;;5.30;;
21038;SDS011;10678;51.002;4.786;2023-06-10T09:54:58;7.90;;;4.85;;
21038;SDS011;10678;51.002;4.786;2023-06-10T09:57:25;10.27;;;4.93;;
21038;SDS011;10678;51.002;4.786;2023-06-10T09:59:55;9.60;;;4.68;;
21038;SDS011;10678;51.002;4.786;2023-06-10T10:02:21;8.52;;;4.50;;
21038;SDS011;10678;51.002;4.786;2023-06-10T10:04:46;9.10;;;4.47;;
21038;SDS011;10678;51.002;4.786;2023-06-10T10:07:12;8.32;;;4.38;;
21038;SDS011;10678;51.002;4.786;2023-06-10T10:09:40;8.00;;;4.63;;
21038;SDS011;10678;51.002;4.786;2023-06-10T10:12:09;6.85;;;4.40;;
21038;SDS011;10678;51.002;4.786;2023-06-10T10:14:36;9.55;;;4.22;;
21038;SDS011;10678;51.002;4.786;2023-06-10T10:17:07;8.18;;;4.25;;
21038;SDS011;10678;51.002;4.786;2023-06-10T10:19:50;6.30;;;3.92;;
21038;SDS011;10678;51.002;4.786;2023-06-10T10:22:20;11.05;;;4.47;;
21038;SDS011;10678;51.002;4.786;2023-06-10T10:24:56;7.97;;;4.50;;
21038;SDS011;10678;51.002;4.786;2023-06-10T10:27:28;8.52;;;4.88;;
21038;SDS011;10678;51.002;4.786;2023-06-10T10:29:58;11.32;;;4.28;;
21038;SDS011;10678;51.002;4.786;2023-06-10T10:35:24;7.88;;;3.83;;
21038;SDS011;10678;51.002;4.786;2023-06-10T10:37:54;10.23;;;4.18;;
21038;SDS011;10678;51.002;4.786;2023-06-10T10:40:20;8.57;;;4.20;;
21038;SDS011;10678;51.002;4.786;2023-06-10T10:42:48;9.90;;;4.50;;
21038;SDS011;10678;51.002;4.786;2023-06-10T10:45:15;8.32;;;4.85;;
21038;SDS011;10678;51.002;4.786;2023-06-10T10:47:41;13.90;;;5.32;;
21038;SDS011;10678;51.002;4.786;2023-06-10T10:50:18;10.52;;;4.53;;
21038;SDS011;10678;51.002;4.786;2023-06-10T10:52:52;7.95;;;4.38;;
21038;SDS011;10678;51.002;4.786;2023-06-10T10:55:18;8.55;;;4.63;;
21038;SDS011;10678;51.002;4.786;2023-06-10T10:57:44;7.15;;;4.50;;
21038;SDS011;10678;51.002;4.786;2023-06-10T11:00:24;8.35;;;4.60;;
21038;SDS011;10678;51.002;4.786;2023-06-10T11:05:41;8.40;;;4.30;;
21038;SDS011;10678;51.002;4.786;2023-06-10T11:08:12;6.65;;;4.22;;
21038;SDS011;10678;51.002;4.786;2023-06-10T11:10:51;6.80;;;4.55;;
21038;SDS011;10678;51.002;4.786;2023-06-10T11:13:20;8.20;;;4.90;;
21038;SDS011;10678;51.002;4.786;2023-06-10T11:15:48;10.85;;;4.22;;
21038;SDS011;10678;51.002;4.786;2023-06-10T11:18:30;7.60;;;4.30;;
21038;SDS011;10678;51.002;4.786;2023-06-10T11:21:04;8.90;;;4.70;;
21038;SDS011;10678;51.002;4.786;2023-06-10T11:23:32;5.95;;;4.30;;
21038;SDS011;10678;51.002;4.786;2023-06-10T11:31:20;8.43;;;4.43;;
21038;SDS011;10678;51.002;4.786;2023-06-10T11:33:55;11.77;;;4.70;;
21038;SDS011;10678;51.002;4.786;2023-06-10T11:36:21;9.35;;;4.00;;
21038;SDS011;10678;51.002;4.786;2023-06-10T11:38:48;9.50;;;4.22;;
21038;SDS011;10678;51.002;4.786;2023-06-10T11:41:14;6.82;;;4.53;;
21038;SDS011;10678;51.002;4.786;2023-06-10T11:43:42;7.20;;;4.45;;
21038;SDS011;10678;51.002;4.786;2023-06-10T11:46:09;8.02;;;3.90;;
21038;SDS011;10678;51.002;4.786;2023-06-10T11:48:37;15.43;;;4.32;;
21038;SDS011;10678;51.002;4.786;2023-06-10T11:51:06;9.45;;;4.35;;
21038;SDS011;10678;51.002;4.786;2023-06-10T11:53:33;8.43;;;4.13;;
21038;SDS011;10678;51.002;4.786;2023-06-10T11:55:59;10.65;;;5.53;;
21038;SDS011;10678;51.002;4.786;2023-06-10T11:58:24;8.75;;;4.30;;
21038;SDS011;10678;51.002;4.786;2023-06-10T12:00:51;7.72;;;3.97;;
21038;SDS011;10678;51.002;4.786;2023-06-10T12:03:23;10.93;;;3.67;;
21038;SDS011;10678;51.002;4.786;2023-06-10T12:05:57;7.57;;;4.45;;
21038;SDS011;10678;51.002;4.786;2023-06-10T12:08:23;10.57;;;4.10;;
21038;SDS011;10678;51.002;4.786;2023-06-10T12:10:49;8.52;;;4.10;;
21038;SDS011;10678;51.002;4.786;2023-06-10T12:13:15;9.90;;;3.83;;
21038;SDS011;10678;51.002;4.786;2023-06-10T12:15:42;12.90;;;4.43;;
21038;SDS011;10678;51.002;4.786;2023-06-10T12:18:15;8.60;;;4.15;;
21038;SDS011;10678;51.002;4.786;2023-06-10T12:20:50;9.38;;;3.83;;
21038;SDS011;10678;51.002;4.786;2023-06-10T12:23:17;11.73;;;4.40;;
21038;SDS011;10678;51.002;4.786;2023-06-10T12:25:53;10.38;;;3.83;;
21038;SDS011;10678;51.002;4.786;2023-06-10T12:28:23;7.30;;;3.95;;
21038;SDS011;10678;51.002;4.786;2023-06-10T12:30:50;7.53;;;4.05;;
21038;SDS011;10678;51.002;4.786;2023-06-10T12:33:20;6.13;;;3.90;;
21038;SDS011;10678;51.002;4.786;2023-06-10T12:35:56;8.02;;;4.28;;
21038;SDS011;10678;51.002;4.786;2023-06-10T12:38:22;9.07;;;4.30;;
21038;SDS011;10678;51.002;4.786;2023-06-10T12:40:57;5.95;;;4.07;;
21038;SDS011;10678;51.002;4.786;2023-06-10T12:43:30;8.88;;;3.83;;
21038;SDS011;10678;51.002;4.786;2023-06-10T12:46:07;6.68;;;4.07;;
21038;SDS011;10678;51.002;4.786;2023-06-10T12:48:34;11.93;;;3.70;;
21038;SDS011;10678;51.002;4.786;2023-06-10T12:51:01;8.48;;;4.00;;
21038;SDS011;10678;51.002;4.786;2023-06-10T12:53:27;9.73;;;4.65;;
21038;SDS011;10678;51.002;4.786;2023-06-10T12:55:53;7.38;;;4.28;;
21038;SDS011;10678;51.002;4.786;2023-06-10T12:58:19;9.48;;;3.78;;
21038;SDS011;10678;51.002;4.786;2023-06-10T13:00:45;8.02;;;4.25;;
21038;SDS011;10678;51.002;4.786;2023-06-10T13:03:11;9.00;;;4.10;;
21038;SDS011;10678;51.002;4.786;2023-06-10T13:05:36;6.65;;;4.75;;
21038;SDS011;10678;51.002;4.786;2023-06-10T13:08:03;9.85;;;4.07;;
21038;SDS011;10678;51.002;4.786;2023-06-10T13:10:35;12.07;;;4.10;;
21038;SDS011;10678;51.002;4.786;2023-06-10T13:13:01;7.38;;;4.50;;
21038;SDS011;10678;51.002;4.786;2023-06-10T13:15:30;9.25;;;4.15;;
21038;SDS011;10678;51.002;4.786;2023-06-10T13:17:57;7.55;;;4.15;;
21038;SDS011;10678;51.002;4.786;2023-06-10T13:20:23;8.73;;;4.40;;
21038;SDS011;10678;51.002;4.786;2023-06-10T13:22:49;6.95;;;4.20;;
21038;SDS011;10678;51.002;4.786;2023-06-10T13:25:14;8.27;;;4.07;;
21038;SDS011;10678;51.002;4.786;2023-06-10T13:27:40;8.00;;;4.13;;
21038;SDS011;10678;51.002;4.786;2023-06-10T13:30:07;8.10;;;3.97;;
21038;SDS011;10678;51.002;4.786;2023-06-10T13:32:34;7.43;;;4.10;;
21038;SDS011;10678;51.002;4.786;2023-06-10T13:35:03;8.73;;;4.47;;
21038;SDS011;10678;51.002;4.786;2023-06-10T13:37:29;7.47;;;4.47;;
21038;SDS011;10678;51.002;4.786;2023-06-10T13:39:55;6.82;;;4.50;;
21038;SDS011;10678;51.002;4.786;2023-06-10T13:42:21;7.90;;;4.20;;
21038;SDS011;10678;51.002;4.786;2023-06-10T13:44:47;7.57;;;4.30;;
21038;SDS011;10678;51.002;4.786;2023-06-10T13:47:13;9.10;;;4.18;;
21038;SDS011;10678;51.002;4.786;2023-06-10T13:49:39;7.72;;;4.10;;
21038;SDS011;10678;51.002;4.786;2023-06-10T13:52:05;8.55;;;4.38;;
21038;SDS011;10678;51.002;4.786;2023-06-10T13:54:32;9.13;;;4.70;;
21038;SDS011;10678;51.002;4.786;2023-06-10T13:56:58;8.93;;;4.35;;
21038;SDS011;10678;51.002;4.786;2023-06-10T13:59:25;8.02;;;4.18;;
21038;SDS011;10678;51.002;4.786;2023-06-10T14:01:51;15.02;;;4.57;;
21038;SDS011;10678;51.002;4.786;2023-06-10T14:04:16;9.80;;;4.35;;
21038;SDS011;10678;51.002;4.786;2023-06-10T14:06:42;9.15;;;4.07;;
21038;SDS011;10678;51.002;4.786;2023-06-10T14:09:08;13.02;;;4.60;;
21038;SDS011;10678;51.002;4.786;2023-06-10T14:11:34;6.78;;;4.32;;
21038;SDS011;10678;51.002;4.786;2023-06-10T14:14:00;6.93;;;4.10;;
21038;SDS011;10678;51.002;4.786;2023-06-10T14:16:26;9.45;;;4.55;;
21038;SDS011;10678;51.002;4.786;2023-06-10T14:18:52;7.32;;;4.60;;
21038;SDS011;10678;51.002;4.786;2023-06-10T14:21:17;7.18;;;4.47;;
21038;SDS011;10678;51.002;4.786;2023-06-10T14:23:43;9.27;;;4.68;;
21038;SDS011;10678;51.002;4.786;2023-06-10T14:26:09;6.47;;;4.13;;
21038;SDS011;10678;51.002;4.786;2023-06-10T14:28:35;9.40;;;4.53;;
21038;SDS011;10678;51.002;4.786;2023-06-10T14:31:01;7.55;;;4.20;;
21038;SDS011;10678;51.002;4.786;2023-06-10T14:33:26;9.15;;;4.47;;
21038;SDS011;10678;51.002;4.786;2023-06-10T14:35:52;7.18;;;4.15;;
21038;SDS011;10678;51.002;4.786;2023-06-10T14:38:17;7.78;;;4.38;;
21038;SDS011;10678;51.002;4.786;2023-06-10T14:40:43;7.82;;;4.15;;
21038;SDS011;10678;51.002;4.786;2023-06-10T14:43:09;7.82;;;4.50;;
21038;SDS011;10678;51.002;4.786;2023-06-10T14:45:44;7.80;;;4.05;;
21038;SDS011;10678;51.002;4.786;2023-06-10T14:48:10;6.57;;;3.97;;
21038;SDS011;10678;51.002;4.786;2023-06-10T14:50:36;6.90;;;4.10;;
21038;SDS011;10678;51.002;4.786;2023-06-10T14:53:02;8.05;;;4.47;;
21038;SDS011;10678;51.002;4.786;2023-06-10T14:55:28;8.85;;;4.20;;